createdAt,value
2023-03-26T00:02:04.197Z,-2.00
2023-03-26T00:04:14.760Z,-2.00
2023-03-26T00:06:25.101Z,-2.00
2023-03-26T00:08:33.498Z,-2.00
2023-03-26T00:10:43.689Z,-2.00
2023-03-26T00:12:52.457Z,-2.00
2023-03-26T00:15:01.310Z,-2.00
2023-03-26T00:17:10.370Z,-2.00
2023-03-26T00:19:20.741Z,-2.10
2023-03-26T00:21:31.608Z,-2.00
2023-03-26T00:23:40.151Z,-2.00
2023-03-26T00:25:51.294Z,-2.00
2023-03-26T00:28:00.946Z,-2.10
2023-03-26T00:30:10.436Z,-2.00
2023-03-26T00:32:19.155Z,-2.00
2023-03-26T00:34:29.479Z,-2.10
2023-03-26T00:36:38.154Z,-2.10
2023-03-26T00:38:48.425Z,-2.00
2023-03-26T00:40:59.319Z,-2.00
2023-03-26T00:43:19.472Z,-2.00
2023-03-26T00:45:28.290Z,-2.00
2023-03-26T00:47:37.420Z,-2.10
2023-03-26T00:49:49.064Z,-2.10
2023-03-26T00:51:57.862Z,-2.00
2023-03-26T00:54:07.854Z,-2.00
2023-03-26T00:56:16.749Z,-2.00
2023-03-26T00:58:25.077Z,-2.00
2023-03-26T01:00:36.606Z,-2.00
2023-03-26T01:02:46.562Z,-2.00
2023-03-26T01:05:03.224Z,-2.00
2023-03-26T01:07:14.504Z,-2.00
2023-03-26T01:09:25.142Z,-2.00
2023-03-26T01:11:36.468Z,-2.00
2023-03-26T01:13:49.771Z,-2.00
2023-03-26T01:15:59.238Z,-2.00
2023-03-26T01:18:10.006Z,-2.10
2023-03-26T01:20:27.288Z,-2.00
2023-03-26T01:22:38.224Z,-2.10
2023-03-26T01:24:53.715Z,-2.10
2023-03-26T01:27:11.153Z,-2.00
2023-03-26T01:29:24.083Z,-2.00
2023-03-26T01:31:40.114Z,-2.00
2023-03-26T01:33:53.838Z,-2.00
2023-03-26T01:36:08.845Z,-2.00
2023-03-26T01:38:29.342Z,-2.00
2023-03-26T01:40:44.601Z,-2.10
2023-03-26T01:42:58.399Z,-2.10
2023-03-26T01:45:12.957Z,-2.10
2023-03-26T01:47:22.312Z,-2.00
2023-03-26T01:49:31.805Z,-2.10
2023-03-26T01:51:41.808Z,-2.00
2023-03-26T01:53:50.617Z,-1.90
2023-03-26T01:56:12.918Z,-2.00
2023-03-26T01:58:30.131Z,-2.00
2023-03-26T02:00:45.140Z,-2.00
2023-03-26T02:03:05.971Z,-2.00
2023-03-26T02:05:22.336Z,-2.00
2023-03-26T02:07:38.398Z,-2.00
2023-03-26T02:09:50.810Z,-2.10
2023-03-26T02:12:03.699Z,-2.00
2023-03-26T02:14:14.907Z,-2.00
2023-03-26T02:16:24.121Z,-2.00
2023-03-26T02:18:39.512Z,-2.00
2023-03-26T02:20:48.329Z,-2.00
2023-03-26T02:22:57.790Z,-2.00
2023-03-26T02:25:07.266Z,-2.00
2023-03-26T02:27:18.789Z,-1.90
2023-03-26T02:29:28.020Z,-2.00
2023-03-26T02:31:36.844Z,-1.90
2023-03-26T02:33:47.664Z,-2.00
2023-03-26T02:35:59.655Z,-2.00
2023-03-26T02:38:10.566Z,-2.00
2023-03-26T02:40:21.498Z,-2.00
2023-03-26T02:42:31.932Z,-2.00
2023-03-26T02:44:40.549Z,-2.00
2023-03-26T02:46:49.401Z,-2.00
2023-03-26T02:48:58.312Z,-2.00
2023-03-26T02:51:07.252Z,-2.00
2023-03-26T02:53:16.024Z,-2.00
2023-03-26T02:55:24.775Z,-2.00
2023-03-26T02:57:34.981Z,-2.00
2023-03-26T02:59:43.604Z,-1.90
2023-03-26T03:01:52.337Z,-1.90
2023-03-26T03:04:01.628Z,-1.90
2023-03-26T03:06:10.723Z,-1.90
2023-03-26T03:08:19.622Z,-1.90
2023-03-26T03:10:33.166Z,-1.90
2023-03-26T03:12:43.680Z,-1.90
2023-03-26T03:14:52.419Z,-1.90
2023-03-26T03:17:00.856Z,-1.90
2023-03-26T03:19:09.712Z,-1.90
2023-03-26T03:21:18.155Z,-1.90
2023-03-26T03:23:26.742Z,-1.90
2023-03-26T03:25:35.611Z,-1.80
2023-03-26T03:27:45.979Z,-1.90
2023-03-26T03:29:55.936Z,-1.80
2023-03-26T03:32:04.633Z,-1.80
2023-03-26T03:34:12.946Z,-1.80
2023-03-26T03:36:24.011Z,-1.80
2023-03-26T03:38:32.637Z,-1.80
2023-03-26T03:40:41.233Z,-1.90
2023-03-26T03:42:51.563Z,-1.90
2023-03-26T03:45:00.535Z,-1.90
2023-03-26T03:47:11.016Z,-1.90
2023-03-26T03:49:19.365Z,-1.90
2023-03-26T03:51:28.110Z,-1.90
2023-03-26T03:53:37.348Z,-1.90
2023-03-26T03:55:53.700Z,-1.80
2023-03-26T03:58:06.563Z,-1.90
2023-03-26T04:00:16.615Z,-1.90
2023-03-26T04:02:30.392Z,-1.80
2023-03-26T04:04:40.278Z,-1.80
2023-03-26T04:06:49.218Z,-1.80
2023-03-26T04:08:58.486Z,-1.80
2023-03-26T04:11:07.306Z,-1.80
2023-03-26T04:13:18.192Z,-1.90
2023-03-26T04:15:26.784Z,-1.80
2023-03-26T04:17:42.816Z,-1.80
2023-03-26T04:19:53.113Z,-1.80
2023-03-26T04:22:03.192Z,-1.80
2023-03-26T04:24:12.468Z,-1.90
2023-03-26T04:26:21.531Z,-1.80
2023-03-26T04:28:34.511Z,-1.80
2023-03-26T04:30:45.358Z,-1.80
2023-03-26T04:32:54.613Z,-1.80
2023-03-26T04:35:04.325Z,-1.80
2023-03-26T04:37:19.516Z,-1.80
2023-03-26T04:39:29.507Z,-1.70
2023-03-26T04:41:37.986Z,-1.80
2023-03-26T04:43:50.899Z,-1.80
2023-03-26T04:46:03.839Z,-1.70
2023-03-26T04:48:14.960Z,-1.70
2023-03-26T04:50:24.054Z,-1.70
2023-03-26T04:52:33.218Z,-1.70
2023-03-26T04:54:42.268Z,-1.70
2023-03-26T04:56:55.195Z,-1.70
2023-03-26T04:59:06.344Z,-1.70
2023-03-26T05:01:16.895Z,-1.70
2023-03-26T05:03:25.928Z,-1.70
2023-03-26T05:05:34.657Z,-1.60
2023-03-26T05:07:43.028Z,-1.60
2023-03-26T05:09:52.012Z,-1.60
2023-03-26T05:12:01.176Z,-1.60
2023-03-26T05:14:11.601Z,-1.60
2023-03-26T05:16:20.340Z,-1.60
2023-03-26T05:18:28.638Z,-1.60
2023-03-26T05:20:38.322Z,-1.60
2023-03-26T05:22:46.619Z,-1.60
2023-03-26T05:24:55.019Z,-1.60
2023-03-26T05:27:04.035Z,-1.50
2023-03-26T05:29:22.249Z,-1.50
2023-03-26T05:31:32.188Z,-1.50
2023-03-26T05:33:40.882Z,-1.50
2023-03-26T05:35:50.793Z,-1.50
2023-03-26T05:37:59.574Z,-1.40
2023-03-26T05:40:12.268Z,-1.40
2023-03-26T05:42:21.134Z,-1.40
2023-03-26T05:44:31.614Z,-1.30
2023-03-26T05:46:40.647Z,-1.30
2023-03-26T05:48:49.301Z,-1.40
2023-03-26T05:50:59.635Z,-1.40
2023-03-26T05:53:08.769Z,-1.30
2023-03-26T05:55:18.568Z,-1.30
2023-03-26T05:57:28.482Z,-1.30
2023-03-26T05:59:38.857Z,-1.30
2023-03-26T06:01:47.938Z,-1.40
2023-03-26T06:03:56.860Z,-1.30
2023-03-26T06:06:09.370Z,-1.30
2023-03-26T06:08:19.862Z,-1.20
2023-03-26T06:10:28.474Z,-1.20
2023-03-26T06:12:37.137Z,-1.20
2023-03-26T06:14:47.420Z,-1.10
2023-03-26T06:16:55.830Z,-1.10
2023-03-26T06:19:04.266Z,-1.10
2023-03-26T06:21:12.849Z,-1.10
2023-03-26T06:23:23.313Z,-1.00
2023-03-26T06:25:31.618Z,-1.00
2023-03-26T06:27:40.069Z,-0.90
2023-03-26T06:29:50.158Z,-1.00
2023-03-26T06:32:09.100Z,-0.90
2023-03-26T06:34:21.006Z,-0.90
2023-03-26T06:36:30.089Z,-0.90
2023-03-26T06:38:38.512Z,-1.00
2023-03-26T06:40:46.994Z,-1.00
2023-03-26T06:43:07.991Z,-1.10
2023-03-26T06:45:20.691Z,-1.00
2023-03-26T06:47:29.443Z,-0.90
2023-03-26T06:49:38.301Z,-1.00
2023-03-26T06:51:47.545Z,-1.00
2023-03-26T06:53:55.949Z,-1.00
2023-03-26T06:56:05.350Z,-1.00
2023-03-26T06:58:16.909Z,-1.00
2023-03-26T07:00:27.134Z,-1.00
2023-03-26T07:02:35.654Z,-0.90
2023-03-26T07:04:44.293Z,-0.90
2023-03-26T07:06:52.620Z,-0.90
2023-03-26T07:09:01.105Z,-0.90
2023-03-26T07:11:09.969Z,-0.90
2023-03-26T07:13:18.365Z,-0.90
2023-03-26T07:15:29.445Z,-0.90
2023-03-26T07:17:38.011Z,-0.80
2023-03-26T07:19:46.985Z,-0.80
2023-03-26T07:21:56.246Z,-0.70
2023-03-26T07:24:06.111Z,-0.80
2023-03-26T07:26:22.798Z,-0.70
2023-03-26T07:28:39.611Z,-0.70
2023-03-26T07:30:58.640Z,-0.80
2023-03-26T07:33:13.197Z,-0.70
2023-03-26T07:35:25.692Z,-0.70
2023-03-26T07:37:45.589Z,-0.70
2023-03-26T07:39:59.140Z,-0.50
2023-03-26T07:42:17.596Z,-0.40
2023-03-26T07:44:38.408Z,-0.60
2023-03-26T07:46:53.466Z,-0.50
2023-03-26T07:49:04.770Z,-0.50
2023-03-26T07:51:15.080Z,-0.50
2023-03-26T07:53:24.234Z,-0.70
2023-03-26T07:55:33.468Z,-0.50
2023-03-26T07:57:50.131Z,-0.60
2023-03-26T08:00:02.896Z,-0.50
2023-03-26T08:02:33.737Z,-0.30
2023-03-26T08:04:56.655Z,-0.40
2023-03-26T08:07:11.188Z,-0.30
2023-03-26T08:09:29.916Z,-0.20
2023-03-26T08:11:49.373Z,-0.30
2023-03-26T08:14:10.092Z,-0.30
2023-03-26T08:16:25.578Z,-0.40
2023-03-26T08:18:49.183Z,-0.40
2023-03-26T08:21:02.126Z,-0.20
2023-03-26T08:23:22.466Z,-0.20
2023-03-26T08:25:37.867Z,-0.20
2023-03-26T08:27:58.350Z,-0.30
2023-03-26T08:30:13.001Z,-0.40
2023-03-26T08:32:23.007Z,-0.40
2023-03-26T08:34:33.214Z,-0.30
2023-03-26T08:36:42.287Z,-0.30
2023-03-26T08:38:52.514Z,-0.20
2023-03-26T08:42:04.572Z,-0.30
2023-03-26T08:45:09.422Z,-0.50
2023-03-26T08:48:01.913Z,-0.40
2023-03-26T08:50:56.459Z,-0.30
2023-03-26T08:53:37.955Z,-0.20
2023-03-26T08:55:53.711Z,-0.20
2023-03-26T08:58:41.454Z,-0.30
2023-03-26T09:01:26.154Z,-0.20
2023-03-26T09:04:18.606Z,-0.20
2023-03-26T09:07:00.063Z,-0.10
2023-03-26T09:09:48.326Z,-0.20
2023-03-26T09:12:26.429Z,-0.20
2023-03-26T09:15:24.907Z,-0.20
2023-03-26T09:18:22.029Z,-0.20
2023-03-26T09:21:08.052Z,-0.20
2023-03-26T09:23:57.418Z,-0.30
2023-03-26T09:26:19.493Z,-0.20
2023-03-26T09:29:07.068Z,0.00
2023-03-26T09:32:00.692Z,0.00
2023-03-26T09:34:28.944Z,0.00
2023-03-26T09:36:55.108Z,-0.10
2023-03-26T09:39:11.522Z,-0.10
2023-03-26T09:41:34.356Z,-0.10
2023-03-26T09:44:13.864Z,-0.10
2023-03-26T09:46:31.651Z,-0.10
2023-03-26T09:49:06.956Z,-0.10
2023-03-26T09:51:57.977Z,0.00
2023-03-26T09:54:51.048Z,-0.20
2023-03-26T09:57:07.920Z,-0.20
2023-03-26T09:59:38.399Z,-0.20
2023-03-26T10:01:53.975Z,-0.10
2023-03-26T10:07:01.129Z,-0.30
2023-03-26T10:09:38.936Z,-0.30
2023-03-26T10:12:02.560Z,-0.20
2023-03-26T10:14:22.536Z,-0.10
2023-03-26T10:16:41.402Z,0.00
2023-03-26T10:19:04.451Z,-0.10
2023-03-26T10:21:25.667Z,-0.10
2023-03-26T10:24:03.818Z,-0.10
2023-03-26T10:26:37.234Z,-0.10
2023-03-26T10:29:04.713Z,-0.10
2023-03-26T10:31:31.367Z,-0.20
2023-03-26T10:33:52.749Z,-0.10
2023-03-26T10:36:20.484Z,-0.10
2023-03-26T10:38:42.890Z,0.00
2023-03-26T10:41:01.287Z,0.00
2023-03-26T10:43:24.846Z,0.00
2023-03-26T10:45:42.575Z,0.10
2023-03-26T10:48:35.920Z,0.10
2023-03-26T10:50:56.394Z,0.10
2023-03-26T10:53:10.543Z,0.20
2023-03-26T10:55:25.539Z,0.20
2023-03-26T10:57:45.116Z,0.20
2023-03-26T10:59:56.001Z,0.20
2023-03-26T11:02:30.053Z,0.30
2023-03-26T11:04:50.244Z,0.30
2023-03-26T11:07:11.913Z,0.30
2023-03-26T11:09:31.387Z,0.40
2023-03-26T11:11:48.660Z,0.40
2023-03-26T11:14:05.088Z,0.40
2023-03-26T11:16:21.465Z,0.40
2023-03-26T11:18:41.300Z,0.60
2023-03-26T11:21:19.089Z,0.50
2023-03-26T11:23:36.273Z,0.60
2023-03-26T11:26:03.988Z,0.70
2023-03-26T11:28:27.920Z,0.70
2023-03-26T11:30:44.792Z,0.70
2023-03-26T11:32:56.614Z,0.80
2023-03-26T11:35:11.231Z,0.70
2023-03-26T11:37:29.510Z,0.70
2023-03-26T11:39:45.540Z,0.50
2023-03-26T11:42:01.059Z,0.40
2023-03-26T11:44:22.443Z,0.60
2023-03-26T11:46:33.624Z,0.70
2023-03-26T11:48:45.988Z,0.70
2023-03-26T11:51:00.816Z,0.60
2023-03-26T11:53:17.791Z,0.40
2023-03-26T11:55:27.810Z,0.30
2023-03-26T11:57:38.141Z,0.40
2023-03-26T11:59:57.617Z,0.70
2023-03-26T12:02:24.657Z,0.50
2023-03-26T12:04:38.803Z,0.40
2023-03-26T12:06:56.745Z,0.60
2023-03-26T12:09:18.083Z,0.60
2023-03-26T12:11:33.908Z,0.60
2023-03-26T12:13:52.489Z,0.60
2023-03-26T12:16:06.155Z,0.80
2023-03-26T12:18:26.186Z,0.80
2023-03-26T12:20:39.354Z,0.80
2023-03-26T12:22:47.960Z,0.70
2023-03-26T12:25:16.934Z,0.90
2023-03-26T12:27:28.997Z,0.90
2023-03-26T12:29:37.696Z,0.50
2023-03-26T12:31:53.497Z,0.50
2023-03-26T12:34:10.262Z,0.60
2023-03-26T12:36:25.880Z,0.50
2023-03-26T12:38:36.452Z,0.50
2023-03-26T12:40:48.153Z,0.60
2023-03-26T12:44:53.234Z,0.80
2023-03-26T12:45:32.599Z,0.90
2023-03-26T12:48:00.392Z,0.70
2023-03-26T12:50:15.584Z,0.60
2023-03-26T12:52:38.396Z,0.50
2023-03-26T12:54:54.296Z,0.70
2023-03-26T12:57:20.445Z,0.70
2023-03-26T12:59:38.756Z,0.50
2023-03-26T13:01:57.101Z,0.50
2023-03-26T13:04:36.784Z,0.40
2023-03-26T13:07:00.406Z,0.50
2023-03-26T13:09:35.202Z,0.60
2023-03-26T13:11:54.180Z,0.60
2023-03-26T13:14:24.647Z,0.70
2023-03-26T13:16:42.713Z,0.70
2023-03-26T13:18:57.467Z,0.70
2023-03-26T13:21:11.890Z,0.60
2023-03-26T13:23:32.308Z,0.40
2023-03-26T13:25:48.322Z,0.30
2023-03-26T13:28:11.556Z,0.40
2023-03-26T13:30:33.062Z,0.40
2023-03-26T13:32:57.464Z,0.30
2023-03-26T13:35:21.302Z,1.00
2023-03-26T13:37:38.731Z,0.40
2023-03-26T13:40:01.049Z,0.40
2023-03-26T13:42:22.516Z,0.40
2023-03-26T13:44:41.374Z,0.40
2023-03-26T13:46:56.308Z,0.30
2023-03-26T13:49:07.491Z,0.30
2023-03-26T13:51:23.323Z,0.30
2023-03-26T13:53:40.218Z,0.40
2023-03-26T13:55:53.386Z,0.60
2023-03-26T13:58:07.419Z,0.30
2023-03-26T14:00:21.757Z,0.20
2023-03-26T14:02:39.360Z,0.10
2023-03-26T14:07:06.421Z,0.10
2023-03-26T14:09:20.276Z,0.20
2023-03-26T14:11:40.749Z,0.20
2023-03-26T14:13:55.505Z,0.10
2023-03-26T14:16:10.912Z,0.10
2023-03-26T14:18:32.758Z,0.00
2023-03-26T14:21:15.238Z,0.00
2023-03-26T14:23:50.333Z,-0.10
2023-03-26T14:28:41.482Z,-0.10
2023-03-26T14:31:06.293Z,-0.20
2023-03-26T14:33:39.060Z,-0.10
2023-03-26T14:35:58.964Z,-0.30
2023-03-26T14:38:55.206Z,-0.30
2023-03-26T14:41:10.564Z,-0.30
2023-03-26T14:44:01.654Z,-0.30
2023-03-26T14:46:23.605Z,-0.50
2023-03-26T14:49:16.538Z,-0.40
2023-03-26T14:51:49.304Z,-0.40
2023-03-26T14:54:03.028Z,-0.40
2023-03-26T14:56:47.162Z,-0.50
2023-03-26T14:59:28.641Z,-0.50
2023-03-26T15:02:05.237Z,-0.40
2023-03-26T15:04:45.904Z,-0.40
2023-03-26T15:07:23.109Z,-0.50
2023-03-26T15:10:29.003Z,-0.60
2023-03-26T15:12:52.888Z,-0.70
2023-03-26T15:15:39.419Z,-0.70
2023-03-26T15:18:15.703Z,-0.60
2023-03-26T15:21:05.277Z,-0.70
2023-03-26T15:23:47.412Z,-0.60
2023-03-26T15:26:38.477Z,-0.70
2023-03-26T15:29:19.708Z,-0.70
2023-03-26T15:31:51.566Z,-0.80
2023-03-26T15:34:51.538Z,-0.70
2023-03-26T15:37:32.087Z,-0.70
2023-03-26T15:39:59.500Z,-0.70
2023-03-26T15:42:17.882Z,-0.70
2023-03-26T15:44:50.974Z,-0.60
2023-03-26T15:47:30.155Z,-0.60
2023-03-26T15:49:44.128Z,-0.80
2023-03-26T15:51:58.437Z,-0.80
